createdAt,value
2023-05-22T00:00:10.027Z,11.68
2023-05-22T00:02:57.625Z,11.64
2023-05-22T00:05:43.217Z,12.76
2023-05-22T00:08:29.927Z,11.83
2023-05-22T00:11:15.628Z,11.92
2023-05-22T00:14:01.108Z,11.88
2023-05-22T00:16:48.443Z,12.83
2023-05-22T00:19:34.946Z,11.54
2023-05-22T00:22:21.030Z,12.20
2023-05-22T00:25:07.383Z,11.33
2023-05-22T00:27:52.835Z,12.13
2023-05-22T00:30:38.545Z,12.19
2023-05-22T00:33:24.694Z,11.11
2023-05-22T00:36:10.352Z,11.50
2023-05-22T00:38:56.098Z,12.09
2023-05-22T00:41:41.861Z,11.21
2023-05-22T00:44:27.208Z,10.78
2023-05-22T00:47:12.714Z,11.97
2023-05-22T00:49:59.293Z,10.61
2023-05-22T00:52:46.079Z,11.11
2023-05-22T00:55:31.707Z,10.56
2023-05-22T00:58:18.354Z,11.13
2023-05-22T01:01:05.453Z,11.98
2023-05-22T01:03:53.896Z,12.01
2023-05-22T01:06:41.383Z,11.99
2023-05-22T01:09:26.827Z,10.60
2023-05-22T01:12:24.705Z,11.76
2023-05-22T01:15:45.896Z,11.71
2023-05-22T01:18:40.882Z,11.49
2023-05-22T01:21:30.205Z,10.80
2023-05-22T01:24:47.138Z,11.13
2023-05-22T01:28:01.613Z,10.73
2023-05-22T01:31:06.583Z,9.68
2023-05-22T01:33:56.484Z,11.12
2023-05-22T01:36:46.089Z,10.46
2023-05-22T01:39:31.701Z,11.25
2023-05-22T01:42:17.728Z,10.33
2023-05-22T01:45:04.014Z,10.13
2023-05-22T01:47:49.401Z,10.02
2023-05-22T01:50:36.674Z,10.13
2023-05-22T01:53:33.868Z,9.94
2023-05-22T01:56:46.526Z,11.44
2023-05-22T01:59:39.782Z,11.39
2023-05-22T02:02:28.170Z,11.14
2023-05-22T02:05:18.760Z,9.97
2023-05-22T02:08:04.826Z,10.18
2023-05-22T02:10:52.929Z,10.89
2023-05-22T02:13:40.618Z,10.84
2023-05-22T02:16:28.787Z,10.33
2023-05-22T02:19:15.348Z,10.95
2023-05-22T02:22:00.929Z,10.83
2023-05-22T02:24:48.631Z,10.76
2023-05-22T02:27:34.727Z,9.21
2023-05-22T02:30:20.279Z,10.63
2023-05-22T02:33:09.419Z,9.90
2023-05-22T02:35:55.201Z,10.73
2023-05-22T02:38:40.717Z,10.75
2023-05-22T02:41:26.265Z,9.53
2023-05-22T02:44:11.778Z,10.85
2023-05-22T02:46:57.469Z,9.37
2023-05-22T02:49:43.080Z,9.40
2023-05-22T02:52:28.650Z,10.78
2023-05-22T02:55:14.790Z,10.71
2023-05-22T02:58:00.551Z,10.77
2023-05-22T03:00:46.147Z,10.64
2023-05-22T03:03:31.820Z,10.41
2023-05-22T03:06:17.830Z,9.70
2023-05-22T03:09:04.381Z,10.95
2023-05-22T03:11:49.564Z,10.10
2023-05-22T03:14:35.286Z,9.57
2023-05-22T03:17:21.465Z,10.62
2023-05-22T03:20:08.893Z,9.23
2023-05-22T03:22:54.810Z,10.52
2023-05-22T03:25:40.101Z,10.55
2023-05-22T03:28:25.942Z,9.24
2023-05-22T03:31:11.834Z,10.19
2023-05-22T03:34:14.466Z,9.24
2023-05-22T03:37:02.339Z,9.90
2023-05-22T03:39:47.656Z,9.38
2023-05-22T03:42:49.495Z,10.45
2023-05-22T03:45:36.500Z,10.28
2023-05-22T03:48:22.627Z,9.69
2023-05-22T03:51:10.050Z,10.17
2023-05-22T03:53:55.751Z,10.14
2023-05-22T03:56:41.128Z,10.17
2023-05-22T03:59:27.954Z,10.14
2023-05-22T04:02:16.919Z,9.01
2023-05-22T04:05:02.623Z,10.23
2023-05-22T04:07:47.724Z,10.29
2023-05-22T04:10:33.220Z,10.38
2023-05-22T04:13:18.955Z,10.49
2023-05-22T04:16:04.577Z,10.36
2023-05-22T04:18:50.188Z,9.57
2023-05-22T04:21:35.946Z,10.40
2023-05-22T04:24:23.099Z,10.59
2023-05-22T04:27:08.533Z,10.07
2023-05-22T04:29:53.750Z,10.45
2023-05-22T04:32:39.152Z,10.96
2023-05-22T04:35:24.460Z,10.20
2023-05-22T04:38:10.622Z,11.40
2023-05-22T04:40:56.743Z,11.68
2023-05-22T04:43:42.874Z,10.64
2023-05-22T04:46:28.800Z,12.42
2023-05-22T04:49:14.619Z,12.83
2023-05-22T04:52:05.194Z,12.11
2023-05-22T04:54:52.309Z,13.81
2023-05-22T04:57:39.019Z,13.38
2023-05-22T05:00:26.690Z,14.68
2023-05-22T05:03:12.609Z,15.12
2023-05-22T05:06:00.589Z,15.37
2023-05-22T05:08:46.693Z,15.58
2023-05-22T05:11:32.545Z,15.78
2023-05-22T05:14:18.679Z,14.78
2023-05-22T05:17:04.784Z,16.21
2023-05-22T05:19:51.873Z,15.69
2023-05-22T05:22:39.877Z,16.67
2023-05-22T05:25:26.086Z,15.83
2023-05-22T05:28:12.729Z,16.01
2023-05-22T05:30:59.860Z,16.44
2023-05-22T05:34:04.303Z,17.41
2023-05-22T05:37:10.356Z,16.99
2023-05-22T05:39:57.987Z,17.06
2023-05-22T05:42:45.227Z,17.70
2023-05-22T05:45:32.500Z,18.05
2023-05-22T05:48:18.019Z,18.39
2023-05-22T05:51:07.536Z,18.13
2023-05-22T05:53:57.049Z,18.50
2023-05-22T05:56:44.034Z,18.64
2023-05-22T05:59:31.889Z,19.04
2023-05-22T06:02:42.380Z,19.20
2023-05-22T06:05:46.040Z,19.18
2023-05-22T06:08:39.158Z,18.50
2023-05-22T06:11:24.716Z,19.58
2023-05-22T06:14:13.445Z,19.31
2023-05-22T06:16:58.942Z,18.44
2023-05-22T06:19:45.619Z,18.56
2023-05-22T06:22:32.869Z,18.60
2023-05-22T06:25:20.374Z,18.48
2023-05-22T06:28:07.142Z,19.38
2023-05-22T06:30:53.239Z,19.67
2023-05-22T06:33:43.388Z,19.68
2023-05-22T06:36:29.113Z,18.62
2023-05-22T06:39:14.702Z,19.77
2023-05-22T06:42:24.414Z,19.84
2023-05-22T06:45:45.568Z,19.08
2023-05-22T06:48:50.181Z,19.99
2023-05-22T06:51:41.715Z,19.74
2023-05-22T06:54:30.006Z,19.95
2023-05-22T06:57:17.018Z,20.04
2023-05-22T07:00:12.949Z,19.17
2023-05-22T07:03:21.903Z,19.91
2023-05-22T07:06:26.394Z,19.39
2023-05-22T07:09:13.887Z,20.00
2023-05-22T07:11:59.713Z,19.01
2023-05-22T07:14:45.286Z,20.01
2023-05-22T07:17:32.110Z,20.13
2023-05-22T07:20:18.063Z,19.05
2023-05-22T07:23:13.494Z,19.32
2023-05-22T07:26:00.410Z,19.90
2023-05-22T07:28:52.218Z,20.37
2023-05-22T07:31:39.112Z,19.14
2023-05-22T07:34:31.862Z,19.22
2023-05-22T07:37:18.756Z,20.03
2023-05-22T07:40:09.781Z,19.60
2023-05-22T07:42:55.054Z,19.95
2023-05-22T07:45:40.560Z,20.13
2023-05-22T07:48:29.198Z,19.52
2023-05-22T07:51:14.955Z,20.62
2023-05-22T07:54:01.442Z,20.70
2023-05-22T07:56:47.829Z,19.77
2023-05-22T07:59:35.956Z,19.69
2023-05-22T08:02:22.776Z,20.71
2023-05-22T08:05:09.318Z,20.03
2023-05-22T08:07:55.602Z,20.49
2023-05-22T08:11:01.994Z,20.22
2023-05-22T08:13:53.012Z,20.34
2023-05-22T08:16:39.269Z,20.58
2023-05-22T08:19:25.958Z,20.40
2023-05-22T08:22:12.075Z,19.78
2023-05-22T08:24:58.327Z,20.40
2023-05-22T08:27:44.118Z,20.34
2023-05-22T08:30:29.588Z,20.55
2023-05-22T08:33:15.147Z,20.86
2023-05-22T08:36:00.940Z,19.79
2023-05-22T08:38:46.284Z,20.52
2023-05-22T08:41:31.794Z,20.68
2023-05-22T08:44:17.700Z,20.66
2023-05-22T08:47:09.884Z,19.77
2023-05-22T08:49:58.074Z,20.79
2023-05-22T08:52:50.307Z,19.82
2023-05-22T08:55:37.477Z,20.89
2023-05-22T08:58:24.680Z,20.83
2023-05-22T09:01:10.367Z,20.98
2023-05-22T09:04:00.718Z,20.66
2023-05-22T09:06:49.540Z,20.70
2023-05-22T09:09:39.179Z,21.38
2023-05-22T09:12:27.159Z,20.43
2023-05-22T09:15:13.640Z,21.12
2023-05-22T09:17:59.931Z,20.51
2023-05-22T09:20:45.881Z,21.35
2023-05-22T09:23:32.135Z,21.38
2023-05-22T09:26:17.523Z,20.44
2023-05-22T09:29:05.384Z,21.12
2023-05-22T09:31:50.861Z,21.69
2023-05-22T09:34:36.719Z,21.62
2023-05-22T09:37:22.536Z,20.61
2023-05-22T09:40:11.138Z,21.43
2023-05-22T09:42:56.627Z,21.37
2023-05-22T09:45:42.050Z,20.95
2023-05-22T09:48:27.472Z,20.86
2023-05-22T09:51:13.740Z,21.47
2023-05-22T09:54:03.970Z,20.84
2023-05-22T09:56:52.880Z,20.83
2023-05-22T09:59:40.460Z,21.29
2023-05-22T10:02:27.853Z,21.26
2023-05-22T10:05:23.986Z,21.10
2023-05-22T10:08:14.227Z,20.31
2023-05-22T10:11:00.131Z,21.14
2023-05-22T10:13:47.617Z,20.75
2023-05-22T10:16:38.304Z,20.35
2023-05-22T10:19:27.373Z,21.14
2023-05-22T10:22:20.831Z,20.45
2023-05-22T10:25:09.122Z,21.53
2023-05-22T10:27:57.428Z,21.56
2023-05-22T10:30:54.481Z,21.00
2023-05-22T10:33:55.981Z,21.08
2023-05-22T10:36:54.437Z,20.72
2023-05-22T10:39:53.410Z,20.97
2023-05-22T10:42:39.628Z,21.83
2023-05-22T10:45:29.313Z,21.86
2023-05-22T10:48:15.011Z,21.70
2023-05-22T10:51:01.126Z,21.93
2023-05-22T10:53:58.558Z,21.89
2023-05-22T10:56:44.178Z,21.50
2023-05-22T10:59:35.778Z,21.84
2023-05-22T11:02:25.598Z,21.73
2023-05-22T11:05:17.121Z,21.90
2023-05-22T11:08:36.058Z,21.74
2023-05-22T11:11:26.317Z,21.84
2023-05-22T11:14:15.867Z,21.53
2023-05-22T11:17:01.714Z,21.88
2023-05-22T11:19:59.821Z,21.01
2023-05-22T11:23:00.543Z,21.94
2023-05-22T11:25:45.869Z,21.94
2023-05-22T11:28:31.776Z,22.01
2023-05-22T11:31:17.800Z,21.40
2023-05-22T11:34:03.772Z,22.03
2023-05-22T11:36:49.939Z,21.19
2023-05-22T11:39:35.516Z,21.73
2023-05-22T11:42:20.895Z,22.06
2023-05-22T11:45:07.217Z,21.94
2023-05-22T11:47:53.091Z,22.11
2023-05-22T11:50:42.158Z,21.84
2023-05-22T11:53:31.634Z,21.66
2023-05-22T11:56:21.798Z,21.67
2023-05-22T11:59:07.458Z,21.83
2023-05-22T12:01:53.436Z,20.85
2023-05-22T12:04:38.920Z,21.11
2023-05-22T12:09:45.364Z,21.87
2023-05-22T12:12:40.808Z,21.94
2023-05-22T12:15:32.506Z,21.34
2023-05-22T12:18:19.562Z,22.25
2023-05-22T12:21:08.909Z,21.12
2023-05-22T12:23:56.454Z,22.27
2023-05-22T12:26:53.131Z,22.42
2023-05-22T12:30:08.848Z,22.43
2023-05-22T12:33:04.976Z,22.37
2023-05-22T12:36:14.677Z,22.30
2023-05-22T12:39:00.776Z,22.26
2023-05-22T12:41:46.861Z,21.34
2023-05-22T12:44:32.476Z,22.21
2023-05-22T12:47:18.221Z,22.21
2023-05-22T12:50:03.995Z,22.20
2023-05-22T12:52:49.277Z,22.20
2023-05-22T12:55:35.051Z,22.29
2023-05-22T12:58:20.949Z,22.31
2023-05-22T13:01:06.721Z,22.26
2023-05-22T13:03:52.958Z,22.27
2023-05-22T13:06:44.372Z,22.27
2023-05-22T13:09:33.432Z,22.02
2023-05-22T13:12:20.131Z,22.32
2023-05-22T13:15:17.869Z,22.36
2023-05-22T13:18:06.335Z,22.34
2023-05-22T13:20:52.250Z,22.36
2023-05-22T13:23:52.508Z,22.34
2023-05-22T13:26:39.378Z,21.64
2023-05-22T13:29:31.604Z,22.32
2023-05-22T13:32:24.179Z,22.14
2023-05-22T13:35:12.882Z,22.45
2023-05-22T13:38:05.165Z,22.46
2023-05-22T13:40:56.290Z,22.52
2023-05-22T13:43:45.193Z,22.46
2023-05-22T13:46:41.115Z,22.45
2023-05-22T13:49:30.958Z,22.44
2023-05-22T13:52:19.154Z,22.35
2023-05-22T13:55:13.856Z,22.37
2023-05-22T13:58:02.488Z,21.32
2023-05-22T14:00:52.837Z,22.48
2023-05-22T14:03:43.158Z,22.48
2023-05-22T14:06:30.787Z,22.52
2023-05-22T14:09:27.784Z,21.51
2023-05-22T14:12:18.837Z,22.52
2023-05-22T14:15:04.605Z,22.38
2023-05-22T14:17:51.185Z,22.31
2023-05-22T14:20:39.919Z,22.07
2023-05-22T14:23:28.603Z,22.16
2023-05-22T14:26:14.764Z,21.91
2023-05-22T14:29:03.757Z,21.85
2023-05-22T14:31:51.991Z,21.86
2023-05-22T14:34:40.614Z,22.03
2023-05-22T14:37:26.287Z,21.12
2023-05-22T14:40:13.928Z,21.03
2023-05-22T14:43:05.112Z,22.21
2023-05-22T14:45:59.328Z,22.22
2023-05-22T14:48:47.358Z,22.17
2023-05-22T14:51:38.266Z,22.17
2023-05-22T14:54:24.012Z,21.47
2023-05-22T14:57:09.511Z,21.06
2023-05-22T14:59:54.792Z,21.02
2023-05-22T15:02:40.897Z,21.39
2023-05-22T15:05:26.973Z,20.96
2023-05-22T15:08:20.868Z,22.01
2023-05-22T15:11:12.387Z,22.02
2023-05-22T15:14:03.254Z,21.95
2023-05-22T15:16:54.916Z,22.05
2023-05-22T15:19:49.673Z,22.12
2023-05-22T15:22:43.987Z,22.17
2023-05-22T15:25:36.384Z,22.17
2023-05-22T15:28:26.236Z,22.17
2023-05-22T15:31:41.854Z,22.18
2023-05-22T15:34:37.205Z,22.18
2023-05-22T15:37:38.779Z,22.18
2023-05-22T15:40:31.279Z,22.10
2023-05-22T15:43:17.442Z,22.13
2023-05-22T15:46:05.942Z,22.10
2023-05-22T15:48:52.496Z,22.05
2023-05-22T15:51:39.242Z,22.02
2023-05-22T15:54:26.333Z,21.87
2023-05-22T15:57:14.749Z,20.93
2023-05-22T16:00:04.014Z,21.98
2023-05-22T16:02:50.056Z,20.90
2023-05-22T16:05:40.985Z,21.88
2023-05-22T16:08:35.417Z,21.02
2023-05-22T16:11:25.993Z,21.85
2023-05-22T16:14:19.993Z,21.74
2023-05-22T16:17:12.025Z,21.56
2023-05-22T16:19:59.938Z,21.64
2023-05-22T16:22:48.512Z,21.78
2023-05-22T16:25:35.013Z,21.49
2023-05-22T16:28:24.033Z,21.75
2023-05-22T16:31:18.365Z,21.71
2023-05-22T16:34:07.447Z,20.61
2023-05-22T16:36:52.789Z,21.71
2023-05-22T16:39:39.877Z,21.74
2023-05-22T16:42:25.456Z,20.55
2023-05-22T16:45:11.580Z,21.56
2023-05-22T16:47:57.032Z,20.56
2023-05-22T16:50:44.129Z,21.62
2023-05-22T16:53:29.655Z,20.75
2023-05-22T16:56:16.929Z,21.38
2023-05-22T16:59:03.467Z,21.41
2023-05-22T17:01:49.113Z,20.41
2023-05-22T17:04:41.146Z,21.44
2023-05-22T17:07:42.059Z,21.36
2023-05-22T17:10:29.551Z,21.27
2023-05-22T17:13:23.815Z,21.20
2023-05-22T17:16:17.592Z,21.00
2023-05-22T17:19:06.543Z,19.95
2023-05-22T17:21:52.173Z,20.69
2023-05-22T17:24:37.675Z,19.71
2023-05-22T17:27:36.451Z,20.81
2023-05-22T17:30:45.029Z,20.72
2023-05-22T17:33:36.530Z,20.74
2023-05-22T17:36:52.864Z,20.57
2023-05-22T17:39:54.989Z,20.42
2023-05-22T17:42:40.457Z,19.45
2023-05-22T17:45:26.177Z,20.43
2023-05-22T17:48:14.618Z,20.34
2023-05-22T17:51:01.128Z,20.56
2023-05-22T17:53:48.013Z,19.62
2023-05-22T17:56:34.744Z,20.41
2023-05-22T17:59:20.370Z,20.33
2023-05-22T18:02:06.304Z,19.92
2023-05-22T18:04:52.136Z,20.21
2023-05-22T18:07:37.623Z,19.06
2023-05-22T18:10:25.150Z,19.93
2023-05-22T18:13:11.051Z,20.05
2023-05-22T18:15:58.788Z,18.87
2023-05-22T18:18:44.162Z,19.92
2023-05-22T18:21:29.575Z,19.34
2023-05-22T18:24:15.000Z,19.33
2023-05-22T18:27:03.379Z,19.45
2023-05-22T18:29:48.570Z,19.41
2023-05-22T18:32:34.436Z,19.26
2023-05-22T18:35:20.362Z,18.80
2023-05-22T18:38:06.423Z,18.80
2023-05-22T18:40:52.295Z,18.53
2023-05-22T18:43:37.925Z,17.45
2023-05-22T18:46:24.010Z,18.46
2023-05-22T18:49:09.725Z,18.39
2023-05-22T18:51:55.243Z,17.26
2023-05-22T18:54:40.721Z,18.16
2023-05-22T18:57:26.357Z,18.19
2023-05-22T19:00:12.223Z,17.12
2023-05-22T19:03:00.743Z,17.67
2023-05-22T19:05:46.590Z,16.60
2023-05-22T19:08:33.748Z,16.77
2023-05-22T19:11:19.102Z,16.98
2023-05-22T19:14:04.657Z,16.54
2023-05-22T19:16:49.923Z,17.48
2023-05-22T19:19:36.195Z,17.48
2023-05-22T19:22:21.723Z,16.23
2023-05-22T19:25:07.593Z,17.42
2023-05-22T19:27:53.068Z,16.47
2023-05-22T19:30:38.642Z,16.85
2023-05-22T19:33:26.197Z,17.02
2023-05-22T19:36:11.713Z,15.54
2023-05-22T19:38:57.065Z,15.44
2023-05-22T19:41:43.161Z,15.60
2023-05-22T19:44:30.521Z,16.41
2023-05-22T19:47:16.163Z,16.20
2023-05-22T19:50:03.795Z,16.12
2023-05-22T19:52:49.549Z,14.71
2023-05-22T19:55:35.306Z,15.69
2023-05-22T19:58:24.372Z,15.79
2023-05-22T20:01:15.135Z,14.58
2023-05-22T20:04:01.188Z,15.74
2023-05-22T20:06:49.323Z,15.75
2023-05-22T20:09:35.259Z,15.85
2023-05-22T20:12:21.247Z,14.52
2023-05-22T20:15:09.039Z,14.91
2023-05-22T20:17:55.561Z,15.80
2023-05-22T20:20:40.854Z,15.80
2023-05-22T20:23:27.659Z,15.84
2023-05-22T20:26:20.132Z,15.83
2023-05-22T20:29:07.218Z,15.75
2023-05-22T20:31:58.081Z,14.68
2023-05-22T20:34:45.384Z,15.77
2023-05-22T20:37:34.866Z,15.70
2023-05-22T20:40:26.558Z,15.62
2023-05-22T20:43:13.909Z,15.51
2023-05-22T20:45:59.713Z,15.38
2023-05-22T20:48:47.143Z,14.10
2023-05-22T20:51:33.581Z,15.33
2023-05-22T20:54:20.026Z,14.27
2023-05-22T20:57:06.179Z,15.07
2023-05-22T20:59:55.085Z,13.77
2023-05-22T21:02:40.765Z,14.86
2023-05-22T21:05:27.974Z,14.83
2023-05-22T21:08:13.593Z,14.72
2023-05-22T21:11:00.234Z,14.57
2023-05-22T21:13:45.584Z,14.68
2023-05-22T21:16:31.019Z,14.27
2023-05-22T21:19:16.312Z,14.57
2023-05-22T21:22:01.658Z,13.54
2023-05-22T21:24:47.043Z,14.19
2023-05-22T21:27:33.423Z,14.40
2023-05-22T21:30:18.721Z,13.13
2023-05-22T21:33:04.239Z,13.48
2023-05-22T21:35:49.819Z,14.26
2023-05-22T21:38:35.175Z,14.24
2023-05-22T21:41:20.535Z,14.27
2023-05-22T21:44:06.084Z,14.15
2023-05-22T21:46:51.353Z,13.87
2023-05-22T21:49:39.611Z,12.83
2023-05-22T21:52:27.766Z,12.71
2023-05-22T21:55:12.984Z,12.94
2023-05-22T21:57:58.238Z,13.92
2023-05-22T22:00:43.378Z,13.22
2023-05-22T22:03:28.733Z,12.81
2023-05-22T22:06:14.871Z,13.90
2023-05-22T22:09:06.368Z,13.82
2023-05-22T22:11:52.661Z,12.39
2023-05-22T22:14:38.192Z,13.78
2023-05-22T22:17:23.920Z,12.49
2023-05-22T22:20:10.423Z,12.69
2023-05-22T22:22:55.932Z,12.41
2023-05-22T22:25:41.112Z,13.34
2023-05-22T22:28:26.572Z,13.30
2023-05-22T22:31:12.185Z,13.13
2023-05-22T22:33:57.869Z,13.26
2023-05-22T22:36:43.434Z,13.17
2023-05-22T22:39:28.643Z,12.98
2023-05-22T22:42:14.846Z,12.58
2023-05-22T22:45:00.164Z,12.96
2023-05-22T22:47:45.972Z,12.07
2023-05-22T22:50:32.754Z,13.12
2023-05-22T22:53:19.483Z,13.12
2023-05-22T22:56:05.584Z,12.88
2023-05-22T22:58:51.262Z,13.12
2023-05-22T23:01:36.544Z,13.09
2023-05-22T23:04:22.156Z,12.93
2023-05-22T23:07:09.104Z,11.88
2023-05-22T23:09:57.244Z,12.56
2023-05-22T23:12:42.977Z,11.65
2023-05-22T23:15:30.582Z,12.50
2023-05-22T23:18:15.828Z,11.70
2023-05-22T23:21:01.386Z,12.48
2023-05-22T23:23:46.579Z,12.42
2023-05-22T23:26:32.302Z,12.27
2023-05-22T23:29:17.897Z,12.35
2023-05-22T23:32:03.199Z,12.10
2023-05-22T23:34:48.709Z,12.03
2023-05-22T23:37:34.072Z,11.29
2023-05-22T23:40:19.500Z,12.28
2023-05-22T23:43:04.730Z,12.23
2023-05-22T23:45:49.887Z,12.20
2023-05-22T23:48:35.401Z,12.18
2023-05-22T23:51:20.716Z,10.90
2023-05-22T23:54:06.375Z,11.97
2023-05-22T23:56:51.674Z,11.99
2023-05-22T23:59:36.979Z,11.84
